sensor_id;sensor_type;location;lat;lon;timestamp;temperature;humidity
66140;DHT22;52945;51.908;8.364;2022-07-17T00:01:37;19.20;47.90
66140;DHT22;52945;51.908;8.364;2022-07-17T00:04:38;19.20;48.00
66140;DHT22;52945;51.908;8.364;2022-07-17T00:07:39;19.20;48.10
66140;DHT22;52945;51.908;8.364;2022-07-17T00:10:41;19.20;48.20
66140;DHT22;52945;51.908;8.364;2022-07-17T00:13:42;19.10;48.30
66140;DHT22;52945;51.908;8.364;2022-07-17T00:16:42;19.00;48.70
66140;DHT22;52945;51.908;8.364;2022-07-17T00:19:43;18.90;48.70
66140;DHT22;52945;51.908;8.364;2022-07-17T00:22:43;18.90;48.70
66140;DHT22;52945;51.908;8.364;2022-07-17T00:25:44;18.80;48.90
66140;DHT22;52945;51.908;8.364;2022-07-17T00:28:45;18.80;49.10
66140;DHT22;52945;51.908;8.364;2022-07-17T00:31:46;18.80;49.00
66140;DHT22;52945;51.908;8.364;2022-07-17T00:34:46;18.70;49.10
66140;DHT22;52945;51.908;8.364;2022-07-17T00:37:48;18.70;49.20
66140;DHT22;52945;51.908;8.364;2022-07-17T00:40:49;18.70;49.30
66140;DHT22;52945;51.908;8.364;2022-07-17T00:43:50;18.70;49.50
66140;DHT22;52945;51.908;8.364;2022-07-17T00:46:50;18.60;49.80
66140;DHT22;52945;51.908;8.364;2022-07-17T00:49:51;18.50;49.80
66140;DHT22;52945;51.908;8.364;2022-07-17T00:52:51;18.50;49.70
66140;DHT22;52945;51.908;8.364;2022-07-17T00:55:52;18.40;49.90
66140;DHT22;52945;51.908;8.364;2022-07-17T00:58:54;18.40;50.00
66140;DHT22;52945;51.908;8.364;2022-07-17T01:01:54;18.20;50.10
66140;DHT22;52945;51.908;8.364;2022-07-17T01:04:55;18.20;50.20
66140;DHT22;52945;51.908;8.364;2022-07-17T01:07:55;18.20;50.30
66140;DHT22;52945;51.908;8.364;2022-07-17T01:10:56;18.20;50.30
66140;DHT22;52945;51.908;8.364;2022-07-17T01:13:57;18.20;50.40
66140;DHT22;52945;51.908;8.364;2022-07-17T01:16:57;18.10;50.50
66140;DHT22;52945;51.908;8.364;2022-07-17T01:19:58;18.00;50.80
66140;DHT22;52945;51.908;8.364;2022-07-17T01:22:59;18.00;50.80
66140;DHT22;52945;51.908;8.364;2022-07-17T01:25:59;17.90;51.10
66140;DHT22;52945;51.908;8.364;2022-07-17T01:29:00;17.80;51.10
66140;DHT22;52945;51.908;8.364;2022-07-17T01:32:00;17.80;51.40
66140;DHT22;52945;51.908;8.364;2022-07-17T01:35:02;17.80;51.10
66140;DHT22;52945;51.908;8.364;2022-07-17T01:38:03;17.70;51.10
66140;DHT22;52945;51.908;8.364;2022-07-17T01:41:03;17.70;51.20
66140;DHT22;52945;51.908;8.364;2022-07-17T01:44:04;17.60;51.50
66140;DHT22;52945;51.908;8.364;2022-07-17T01:47:06;17.60;51.50
66140;DHT22;52945;51.908;8.364;2022-07-17T01:50:07;17.60;51.70
66140;DHT22;52945;51.908;8.364;2022-07-17T01:53:08;17.50;51.70
66140;DHT22;52945;51.908;8.364;2022-07-17T01:56:09;17.50;51.80
66140;DHT22;52945;51.908;8.364;2022-07-17T01:59:09;17.40;51.80
66140;DHT22;52945;51.908;8.364;2022-07-17T02:02:11;17.30;52.00
66140;DHT22;52945;51.908;8.364;2022-07-17T02:05:12;17.20;52.40
66140;DHT22;52945;51.908;8.364;2022-07-17T02:08:13;17.20;52.50
66140;DHT22;52945;51.908;8.364;2022-07-17T02:11:14;17.20;52.50
66140;DHT22;52945;51.908;8.364;2022-07-17T02:14:14;17.20;52.60
66140;DHT22;52945;51.908;8.364;2022-07-17T02:17:15;17.10;52.80
66140;DHT22;52945;51.908;8.364;2022-07-17T02:20:16;17.10;53.00
66140;DHT22;52945;51.908;8.364;2022-07-17T02:23:16;17.00;53.20
66140;DHT22;52945;51.908;8.364;2022-07-17T02:26:17;17.00;53.40
66140;DHT22;52945;51.908;8.364;2022-07-17T02:29:18;17.00;53.30
66140;DHT22;52945;51.908;8.364;2022-07-17T02:32:19;17.00;53.30
66140;DHT22;52945;51.908;8.364;2022-07-17T02:35:19;16.90;53.50
66140;DHT22;52945;51.908;8.364;2022-07-17T02:38:20;16.80;53.70
66140;DHT22;52945;51.908;8.364;2022-07-17T02:41:21;16.80;53.70
66140;DHT22;52945;51.908;8.364;2022-07-17T02:44:21;16.80;53.80
66140;DHT22;52945;51.908;8.364;2022-07-17T02:47:27;16.70;54.00
66140;DHT22;52945;51.908;8.364;2022-07-17T02:50:28;16.70;54.10
66140;DHT22;52945;51.908;8.364;2022-07-17T02:53:28;16.70;54.10
66140;DHT22;52945;51.908;8.364;2022-07-17T02:56:29;16.70;54.20
66140;DHT22;52945;51.908;8.364;2022-07-17T02:59:29;16.70;54.20
66140;DHT22;52945;51.908;8.364;2022-07-17T03:02:30;16.60;54.40
66140;DHT22;52945;51.908;8.364;2022-07-17T03:05:30;16.50;54.70
66140;DHT22;52945;51.908;8.364;2022-07-17T03:08:31;16.50;55.00
66140;DHT22;52945;51.908;8.364;2022-07-17T03:11:32;16.40;55.00
66140;DHT22;52945;51.908;8.364;2022-07-17T03:14:32;16.40;54.90
66140;DHT22;52945;51.908;8.364;2022-07-17T03:17:33;16.40;55.00
66140;DHT22;52945;51.908;8.364;2022-07-17T03:20:34;16.30;55.40
66140;DHT22;52945;51.908;8.364;2022-07-17T03:23:35;16.30;55.30
66140;DHT22;52945;51.908;8.364;2022-07-17T03:26:35;16.20;55.40
66140;DHT22;52945;51.908;8.364;2022-07-17T03:29:36;16.20;55.50
66140;DHT22;52945;51.908;8.364;2022-07-17T03:32:36;16.20;55.50
66140;DHT22;52945;51.908;8.364;2022-07-17T03:35:37;16.20;55.60
66140;DHT22;52945;51.908;8.364;2022-07-17T03:38:38;16.20;55.60
66140;DHT22;52945;51.908;8.364;2022-07-17T03:41:38;16.20;55.70
66140;DHT22;52945;51.908;8.364;2022-07-17T03:44:39;16.10;56.10
66140;DHT22;52945;51.908;8.364;2022-07-17T03:47:40;16.10;56.20
66140;DHT22;52945;51.908;8.364;2022-07-17T03:50:40;16.00;56.20
66140;DHT22;52945;51.908;8.364;2022-07-17T03:53:41;16.00;56.50
66140;DHT22;52945;51.908;8.364;2022-07-17T03:56:42;16.00;56.70
66140;DHT22;52945;51.908;8.364;2022-07-17T03:59:43;15.90;56.80
66140;DHT22;52945;51.908;8.364;2022-07-17T04:02:43;15.90;56.80
66140;DHT22;52945;51.908;8.364;2022-07-17T04:05:44;16.00;56.80
66140;DHT22;52945;51.908;8.364;2022-07-17T04:08:45;15.90;56.90
66140;DHT22;52945;51.908;8.364;2022-07-17T04:11:45;16.00;57.00
66140;DHT22;52945;51.908;8.364;2022-07-17T04:14:46;15.90;57.10
66140;DHT22;52945;51.908;8.364;2022-07-17T04:17:46;15.90;57.30
66140;DHT22;52945;51.908;8.364;2022-07-17T04:20:48;15.80;57.30
66140;DHT22;52945;51.908;8.364;2022-07-17T04:23:49;15.80;57.40
66140;DHT22;52945;51.908;8.364;2022-07-17T04:26:50;15.80;57.50
66140;DHT22;52945;51.908;8.364;2022-07-17T04:29:50;15.80;57.40
66140;DHT22;52945;51.908;8.364;2022-07-17T04:32:51;15.80;57.70
66140;DHT22;52945;51.908;8.364;2022-07-17T04:35:52;15.80;57.60
66140;DHT22;52945;51.908;8.364;2022-07-17T04:38:53;15.80;58.00
66140;DHT22;52945;51.908;8.364;2022-07-17T04:41:54;15.80;58.20
66140;DHT22;52945;51.908;8.364;2022-07-17T04:44:54;15.90;58.20
66140;DHT22;52945;51.908;8.364;2022-07-17T04:47:55;15.90;58.30
66140;DHT22;52945;51.908;8.364;2022-07-17T04:50:55;15.90;58.10
66140;DHT22;52945;51.908;8.364;2022-07-17T04:53:56;16.00;58.00
66140;DHT22;52945;51.908;8.364;2022-07-17T04:56:57;16.10;57.90
66140;DHT22;52945;51.908;8.364;2022-07-17T04:59:57;16.10;57.50
66140;DHT22;52945;51.908;8.364;2022-07-17T05:02:58;16.10;57.60
66140;DHT22;52945;51.908;8.364;2022-07-17T05:05:59;16.20;57.30
66140;DHT22;52945;51.908;8.364;2022-07-17T05:08:59;16.20;57.40
66140;DHT22;52945;51.908;8.364;2022-07-17T05:12:00;16.20;57.80
66140;DHT22;52945;51.908;8.364;2022-07-17T05:15:00;16.20;58.00
66140;DHT22;52945;51.908;8.364;2022-07-17T05:18:01;16.20;57.40
66140;DHT22;52945;51.908;8.364;2022-07-17T05:21:02;16.20;57.30
66140;DHT22;52945;51.908;8.364;2022-07-17T05:24:03;16.30;56.90
66140;DHT22;52945;51.908;8.364;2022-07-17T05:27:03;16.40;56.60
66140;DHT22;52945;51.908;8.364;2022-07-17T05:30:04;16.50;57.20
66140;DHT22;52945;51.908;8.364;2022-07-17T05:33:05;16.50;56.90
66140;DHT22;52945;51.908;8.364;2022-07-17T05:36:06;16.40;56.70
66140;DHT22;52945;51.908;8.364;2022-07-17T05:39:06;16.50;56.30
66140;DHT22;52945;51.908;8.364;2022-07-17T05:42:08;16.60;56.80
66140;DHT22;52945;51.908;8.364;2022-07-17T05:45:09;16.60;57.20
66140;DHT22;52945;51.908;8.364;2022-07-17T05:48:09;16.70;57.30
66140;DHT22;52945;51.908;8.364;2022-07-17T05:51:10;16.60;57.20
66140;DHT22;52945;51.908;8.364;2022-07-17T05:54:10;16.70;57.00
66140;DHT22;52945;51.908;8.364;2022-07-17T05:57:11;16.70;56.60
66140;DHT22;52945;51.908;8.364;2022-07-17T06:00:12;16.80;56.40
66140;DHT22;52945;51.908;8.364;2022-07-17T06:03:13;16.90;56.40
66140;DHT22;52945;51.908;8.364;2022-07-17T06:06:13;16.90;56.80
66140;DHT22;52945;51.908;8.364;2022-07-17T06:09:14;16.80;56.60
66140;DHT22;52945;51.908;8.364;2022-07-17T06:12:14;17.00;56.40
66140;DHT22;52945;51.908;8.364;2022-07-17T06:15:15;17.00;56.70
66140;DHT22;52945;51.908;8.364;2022-07-17T06:18:16;17.10;56.30
66140;DHT22;52945;51.908;8.364;2022-07-17T06:21:17;17.20;56.30
66140;DHT22;52945;51.908;8.364;2022-07-17T06:24:17;17.20;56.10
66140;DHT22;52945;51.908;8.364;2022-07-17T06:27:18;17.20;55.70
66140;DHT22;52945;51.908;8.364;2022-07-17T06:30:18;17.30;55.50
66140;DHT22;52945;51.908;8.364;2022-07-17T06:33:19;17.40;55.00
66140;DHT22;52945;51.908;8.364;2022-07-17T06:36:20;17.50;54.70
66140;DHT22;52945;51.908;8.364;2022-07-17T06:39:20;17.50;54.40
66140;DHT22;52945;51.908;8.364;2022-07-17T06:42:21;17.60;54.30
66140;DHT22;52945;51.908;8.364;2022-07-17T06:45:22;17.70;54.10
66140;DHT22;52945;51.908;8.364;2022-07-17T06:48:23;17.70;54.00
66140;DHT22;52945;51.908;8.364;2022-07-17T06:51:23;17.70;54.10
66140;DHT22;52945;51.908;8.364;2022-07-17T06:54:24;17.80;54.00
66140;DHT22;52945;51.908;8.364;2022-07-17T06:57:26;17.90;54.30
66140;DHT22;52945;51.908;8.364;2022-07-17T07:00:26;17.90;54.40
66140;DHT22;52945;51.908;8.364;2022-07-17T07:03:27;18.10;54.30
66140;DHT22;52945;51.908;8.364;2022-07-17T07:06:28;18.10;53.50
66140;DHT22;52945;51.908;8.364;2022-07-17T07:09:29;18.20;53.50
66140;DHT22;52945;51.908;8.364;2022-07-17T07:12:30;18.20;52.90
66140;DHT22;52945;51.908;8.364;2022-07-17T07:15:30;18.40;52.80
66140;DHT22;52945;51.908;8.364;2022-07-17T07:18:31;18.40;53.20
66140;DHT22;52945;51.908;8.364;2022-07-17T07:21:32;18.60;52.40
66140;DHT22;52945;51.908;8.364;2022-07-17T07:24:32;18.60;51.70
66140;DHT22;52945;51.908;8.364;2022-07-17T07:27:33;18.70;52.00
66140;DHT22;52945;51.908;8.364;2022-07-17T07:30:33;18.70;51.90
66140;DHT22;52945;51.908;8.364;2022-07-17T07:33:34;18.80;51.50
66140;DHT22;52945;51.908;8.364;2022-07-17T07:36:34;18.90;51.20
66140;DHT22;52945;51.908;8.364;2022-07-17T07:39:35;19.00;50.70
66140;DHT22;52945;51.908;8.364;2022-07-17T07:42:35;19.10;50.20
66140;DHT22;52945;51.908;8.364;2022-07-17T07:45:36;19.10;50.10
66140;DHT22;52945;51.908;8.364;2022-07-17T07:48:37;19.10;50.00
66140;DHT22;52945;51.908;8.364;2022-07-17T07:51:37;19.20;49.80
66140;DHT22;52945;51.908;8.364;2022-07-17T07:54:38;19.20;49.50
66140;DHT22;52945;51.908;8.364;2022-07-17T07:57:38;19.20;49.60
66140;DHT22;52945;51.908;8.364;2022-07-17T08:00:40;19.20;49.60
66140;DHT22;52945;51.908;8.364;2022-07-17T08:03:42;19.30;49.70
66140;DHT22;52945;51.908;8.364;2022-07-17T08:06:43;19.40;49.50
66140;DHT22;52945;51.908;8.364;2022-07-17T08:09:44;19.50;49.30
66140;DHT22;52945;51.908;8.364;2022-07-17T08:12:44;19.60;49.10
66140;DHT22;52945;51.908;8.364;2022-07-17T08:15:45;19.70;48.40
66140;DHT22;52945;51.908;8.364;2022-07-17T08:18:45;19.70;48.00
66140;DHT22;52945;51.908;8.364;2022-07-17T08:21:46;19.80;48.50
66140;DHT22;52945;51.908;8.364;2022-07-17T08:24:46;19.80;48.50
66140;DHT22;52945;51.908;8.364;2022-07-17T08:27:47;19.90;48.20
66140;DHT22;52945;51.908;8.364;2022-07-17T08:30:48;20.00;48.20
66140;DHT22;52945;51.908;8.364;2022-07-17T08:33:48;20.10;47.80
66140;DHT22;52945;51.908;8.364;2022-07-17T08:36:49;20.20;47.10
66140;DHT22;52945;51.908;8.364;2022-07-17T08:39:50;20.20;47.30
66140;DHT22;52945;51.908;8.364;2022-07-17T08:42:52;20.20;46.10
66140;DHT22;52945;51.908;8.364;2022-07-17T08:45:54;20.30;46.40
66140;DHT22;52945;51.908;8.364;2022-07-17T08:48:58;20.30;46.40
66140;DHT22;52945;51.908;8.364;2022-07-17T08:52:02;20.50;46.40
66140;DHT22;52945;51.908;8.364;2022-07-17T08:55:03;20.50;46.50
66140;DHT22;52945;51.908;8.364;2022-07-17T08:58:04;20.70;46.30
66140;DHT22;52945;51.908;8.364;2022-07-17T09:01:05;20.70;46.00
66140;DHT22;52945;51.908;8.364;2022-07-17T09:04:06;20.80;46.00
66140;DHT22;52945;51.908;8.364;2022-07-17T09:07:07;21.00;44.30
66140;DHT22;52945;51.908;8.364;2022-07-17T09:10:07;21.10;43.70
66140;DHT22;52945;51.908;8.364;2022-07-17T09:13:19;21.50;43.50
66140;DHT22;52945;51.908;8.364;2022-07-17T09:16:20;21.60;43.20
66140;DHT22;52945;51.908;8.364;2022-07-17T09:19:29;21.70;43.00
66140;DHT22;52945;51.908;8.364;2022-07-17T09:22:30;22.00;42.80
66140;DHT22;52945;51.908;8.364;2022-07-17T09:25:40;22.20;41.50
66140;DHT22;52945;51.908;8.364;2022-07-17T09:28:45;22.40;41.40
66140;DHT22;52945;51.908;8.364;2022-07-17T09:31:51;22.70;38.70
66140;DHT22;52945;51.908;8.364;2022-07-17T09:34:54;22.80;38.30
66140;DHT22;52945;51.908;8.364;2022-07-17T09:37:55;23.10;39.00
66140;DHT22;52945;51.908;8.364;2022-07-17T09:44:12;23.60;37.70
66140;DHT22;52945;51.908;8.364;2022-07-17T09:47:12;24.00;37.20
66140;DHT22;52945;51.908;8.364;2022-07-17T09:50:13;24.30;36.60
66140;DHT22;52945;51.908;8.364;2022-07-17T09:53:14;24.40;36.80
66140;DHT22;52945;51.908;8.364;2022-07-17T09:56:18;24.40;35.70
66140;DHT22;52945;51.908;8.364;2022-07-17T09:59:19;24.70;35.50
66140;DHT22;52945;51.908;8.364;2022-07-17T10:02:20;25.10;34.50
66140;DHT22;52945;51.908;8.364;2022-07-17T10:05:21;25.90;33.20
66140;DHT22;52945;51.908;8.364;2022-07-17T10:08:22;26.10;33.00
66140;DHT22;52945;51.908;8.364;2022-07-17T10:11:25;26.20;32.80
66140;DHT22;52945;51.908;8.364;2022-07-17T10:14:28;26.50;31.40
66140;DHT22;52945;51.908;8.364;2022-07-17T10:17:28;26.70;31.30
66140;DHT22;52945;51.908;8.364;2022-07-17T10:20:29;27.10;31.50
66140;DHT22;52945;51.908;8.364;2022-07-17T10:23:29;26.70;31.40
66140;DHT22;52945;51.908;8.364;2022-07-17T10:29:37;26.50;31.20
66140;DHT22;52945;51.908;8.364;2022-07-17T10:32:38;26.40;31.30
66140;DHT22;52945;51.908;8.364;2022-07-17T10:35:47;26.50;31.70
66140;DHT22;52945;51.908;8.364;2022-07-17T10:38:48;26.70;31.90
66140;DHT22;52945;51.908;8.364;2022-07-17T10:41:59;26.90;31.10
66140;DHT22;52945;51.908;8.364;2022-07-17T10:45:16;27.30;30.50
66140;DHT22;52945;51.908;8.364;2022-07-17T10:48:19;27.70;30.70
66140;DHT22;52945;51.908;8.364;2022-07-17T10:51:23;27.90;30.50
66140;DHT22;52945;51.908;8.364;2022-07-17T10:54:32;28.20;30.30
66140;DHT22;52945;51.908;8.364;2022-07-17T10:57:33;28.30;29.60
66140;DHT22;52945;51.908;8.364;2022-07-17T11:00:34;28.30;29.10
66140;DHT22;52945;51.908;8.364;2022-07-17T11:03:54;28.50;28.30
66140;DHT22;52945;51.908;8.364;2022-07-17T11:06:55;28.70;28.30
66140;DHT22;52945;51.908;8.364;2022-07-17T11:10:06;28.90;29.20
66140;DHT22;52945;51.908;8.364;2022-07-17T11:13:09;29.00;28.00
66140;DHT22;52945;51.908;8.364;2022-07-17T11:16:11;29.10;28.30
66140;DHT22;52945;51.908;8.364;2022-07-17T11:19:12;29.00;28.20
66140;DHT22;52945;51.908;8.364;2022-07-17T11:22:13;29.10;27.20
66140;DHT22;52945;51.908;8.364;2022-07-17T11:25:13;29.00;26.60
66140;DHT22;52945;51.908;8.364;2022-07-17T11:28:14;29.10;27.00
66140;DHT22;52945;51.908;8.364;2022-07-17T11:31:25;29.10;26.40
66140;DHT22;52945;51.908;8.364;2022-07-17T11:34:28;29.20;26.40
66140;DHT22;52945;51.908;8.364;2022-07-17T11:37:30;29.20;26.70
66140;DHT22;52945;51.908;8.364;2022-07-17T11:40:30;29.30;27.00
66140;DHT22;52945;51.908;8.364;2022-07-17T11:43:39;29.50;27.20
66140;DHT22;52945;51.908;8.364;2022-07-17T11:46:42;29.50;26.70
66140;DHT22;52945;51.908;8.364;2022-07-17T11:49:43;29.70;26.10
66140;DHT22;52945;51.908;8.364;2022-07-17T11:52:46;29.80;25.20
66140;DHT22;52945;51.908;8.364;2022-07-17T11:55:48;29.40;25.10
66140;DHT22;52945;51.908;8.364;2022-07-17T11:58:49;29.50;25.30
66140;DHT22;52945;51.908;8.364;2022-07-17T12:01:49;29.60;25.40
66140;DHT22;52945;51.908;8.364;2022-07-17T12:04:55;29.70;26.20
66140;DHT22;52945;51.908;8.364;2022-07-17T12:07:57;29.80;26.60
66140;DHT22;52945;51.908;8.364;2022-07-17T12:11:08;29.90;26.20
66140;DHT22;52945;51.908;8.364;2022-07-17T12:14:09;30.00;25.80
66140;DHT22;52945;51.908;8.364;2022-07-17T12:17:09;30.20;24.80
66140;DHT22;52945;51.908;8.364;2022-07-17T12:20:11;30.30;24.60
66140;DHT22;52945;51.908;8.364;2022-07-17T12:23:34;30.50;24.70
66140;DHT22;52945;51.908;8.364;2022-07-17T12:26:35;30.70;24.80
66140;DHT22;52945;51.908;8.364;2022-07-17T12:29:36;30.70;24.30
66140;DHT22;52945;51.908;8.364;2022-07-17T12:32:41;30.70;23.50
66140;DHT22;52945;51.908;8.364;2022-07-17T12:35:41;30.80;23.60
66140;DHT22;52945;51.908;8.364;2022-07-17T12:38:42;30.80;23.60
66140;DHT22;52945;51.908;8.364;2022-07-17T12:41:43;30.80;23.30
66140;DHT22;52945;51.908;8.364;2022-07-17T12:44:44;30.90;23.10
66140;DHT22;52945;51.908;8.364;2022-07-17T12:47:45;31.00;23.20
66140;DHT22;52945;51.908;8.364;2022-07-17T12:50:46;31.10;23.20
66140;DHT22;52945;51.908;8.364;2022-07-17T12:53:47;31.10;23.30
66140;DHT22;52945;51.908;8.364;2022-07-17T12:56:47;31.10;23.80
66140;DHT22;52945;51.908;8.364;2022-07-17T12:59:48;31.20;24.30
66140;DHT22;52945;51.908;8.364;2022-07-17T13:02:49;31.30;23.90
66140;DHT22;52945;51.908;8.364;2022-07-17T13:05:50;31.30;23.10
66140;DHT22;52945;51.908;8.364;2022-07-17T13:08:50;31.20;22.30
66140;DHT22;52945;51.908;8.364;2022-07-17T13:11:51;31.20;23.50
66140;DHT22;52945;51.908;8.364;2022-07-17T13:14:52;31.20;23.80
66140;DHT22;52945;51.908;8.364;2022-07-17T13:17:53;31.20;23.00
66140;DHT22;52945;51.908;8.364;2022-07-17T13:20:53;31.20;23.10
66140;DHT22;52945;51.908;8.364;2022-07-17T13:23:54;31.20;23.00
66140;DHT22;52945;51.908;8.364;2022-07-17T13:26:54;31.20;23.60
66140;DHT22;52945;51.908;8.364;2022-07-17T13:29:55;31.30;23.80
66140;DHT22;52945;51.908;8.364;2022-07-17T13:32:56;31.30;22.90
66140;DHT22;52945;51.908;8.364;2022-07-17T13:35:57;31.30;22.60
66140;DHT22;52945;51.908;8.364;2022-07-17T13:38:57;31.20;22.80
66140;DHT22;52945;51.908;8.364;2022-07-17T13:41:58;31.20;22.90
66140;DHT22;52945;51.908;8.364;2022-07-17T13:44:59;31.30;23.20
66140;DHT22;52945;51.908;8.364;2022-07-17T13:48:00;31.50;22.60
66140;DHT22;52945;51.908;8.364;2022-07-17T13:51:01;31.60;22.70
66140;DHT22;52945;51.908;8.364;2022-07-17T13:54:02;31.70;21.80
66140;DHT22;52945;51.908;8.364;2022-07-17T13:57:03;31.60;21.30
66140;DHT22;52945;51.908;8.364;2022-07-17T14:00:05;31.50;21.40
66140;DHT22;52945;51.908;8.364;2022-07-17T14:03:06;31.30;22.00
66140;DHT22;52945;51.908;8.364;2022-07-17T14:06:07;31.40;22.60
66140;DHT22;52945;51.908;8.364;2022-07-17T14:09:08;31.60;22.90
66140;DHT22;52945;51.908;8.364;2022-07-17T14:12:09;31.70;21.90
66140;DHT22;52945;51.908;8.364;2022-07-17T14:15:09;31.60;21.70
66140;DHT22;52945;51.908;8.364;2022-07-17T14:18:10;31.50;21.80
66140;DHT22;52945;51.908;8.364;2022-07-17T14:21:11;31.50;22.00
66140;DHT22;52945;51.908;8.364;2022-07-17T14:24:12;31.60;22.40
66140;DHT22;52945;51.908;8.364;2022-07-17T14:27:12;31.60;22.80
66140;DHT22;52945;51.908;8.364;2022-07-17T14:30:13;31.50;22.10
66140;DHT22;52945;51.908;8.364;2022-07-17T14:33:14;31.50;22.40
66140;DHT22;52945;51.908;8.364;2022-07-17T14:36:14;31.50;23.00
66140;DHT22;52945;51.908;8.364;2022-07-17T14:39:16;31.50;23.10
66140;DHT22;52945;51.908;8.364;2022-07-17T14:42:17;31.50;23.00
66140;DHT22;52945;51.908;8.364;2022-07-17T14:45:18;31.50;22.90
66140;DHT22;52945;51.908;8.364;2022-07-17T14:48:18;31.50;23.10
66140;DHT22;52945;51.908;8.364;2022-07-17T14:51:19;31.50;23.20
66140;DHT22;52945;51.908;8.364;2022-07-17T14:54:20;31.50;23.30
66140;DHT22;52945;51.908;8.364;2022-07-17T14:57:21;31.60;23.50
66140;DHT22;52945;51.908;8.364;2022-07-17T15:00:21;31.60;23.10
66140;DHT22;52945;51.908;8.364;2022-07-17T15:03:22;31.40;22.80
66140;DHT22;52945;51.908;8.364;2022-07-17T15:06:22;31.40;22.90
66140;DHT22;52945;51.908;8.364;2022-07-17T15:09:23;31.40;22.90
66140;DHT22;52945;51.908;8.364;2022-07-17T15:12:24;31.30;23.20
66140;DHT22;52945;51.908;8.364;2022-07-17T15:15:24;31.40;23.40
66140;DHT22;52945;51.908;8.364;2022-07-17T15:18:25;31.30;23.50
66140;DHT22;52945;51.908;8.364;2022-07-17T15:21:26;31.20;23.00
66140;DHT22;52945;51.908;8.364;2022-07-17T15:24:26;31.20;23.40
66140;DHT22;52945;51.908;8.364;2022-07-17T15:27:27;31.10;23.40
66140;DHT22;52945;51.908;8.364;2022-07-17T15:30:28;31.20;23.50
66140;DHT22;52945;51.908;8.364;2022-07-17T15:33:28;31.10;23.50
66140;DHT22;52945;51.908;8.364;2022-07-17T15:36:29;31.10;23.70
66140;DHT22;52945;51.908;8.364;2022-07-17T15:39:31;31.00;23.70
66140;DHT22;52945;51.908;8.364;2022-07-17T15:42:32;30.90;23.60
66140;DHT22;52945;51.908;8.364;2022-07-17T15:45:32;30.80;23.60
66140;DHT22;52945;51.908;8.364;2022-07-17T15:48:33;30.90;23.70
66140;DHT22;52945;51.908;8.364;2022-07-17T15:51:34;30.90;23.50
66140;DHT22;52945;51.908;8.364;2022-07-17T15:54:34;31.00;23.10
66140;DHT22;52945;51.908;8.364;2022-07-17T15:57:35;31.00;22.90
66140;DHT22;52945;51.908;8.364;2022-07-17T16:00:35;31.00;22.90
66140;DHT22;52945;51.908;8.364;2022-07-17T16:03:36;31.00;23.00
66140;DHT22;52945;51.908;8.364;2022-07-17T16:06:37;31.00;22.90
66140;DHT22;52945;51.908;8.364;2022-07-17T16:09:37;31.00;22.70
66140;DHT22;52945;51.908;8.364;2022-07-17T16:12:39;31.10;22.50
66140;DHT22;52945;51.908;8.364;2022-07-17T16:15:40;31.20;23.10
66140;DHT22;52945;51.908;8.364;2022-07-17T16:18:40;31.20;23.40
66140;DHT22;52945;51.908;8.364;2022-07-17T16:21:41;31.20;22.90
66140;DHT22;52945;51.908;8.364;2022-07-17T16:24:42;31.20;22.40
66140;DHT22;52945;51.908;8.364;2022-07-17T16:27:43;31.20;22.00
66140;DHT22;52945;51.908;8.364;2022-07-17T16:30:44;31.10;22.30
66140;DHT22;52945;51.908;8.364;2022-07-17T16:33:45;31.20;22.80
66140;DHT22;52945;51.908;8.364;2022-07-17T16:36:45;31.20;22.30
66140;DHT22;52945;51.908;8.364;2022-07-17T16:39:46;31.20;21.90
66140;DHT22;52945;51.908;8.364;2022-07-17T16:42:47;31.30;22.10
66140;DHT22;52945;51.908;8.364;2022-07-17T16:45:48;31.30;22.40
66140;DHT22;52945;51.908;8.364;2022-07-17T16:48:49;31.30;22.90
66140;DHT22;52945;51.908;8.364;2022-07-17T16:51:49;31.40;23.10
66140;DHT22;52945;51.908;8.364;2022-07-17T16:54:50;31.50;22.50
66140;DHT22;52945;51.908;8.364;2022-07-17T16:57:50;31.40;22.80
66140;DHT22;52945;51.908;8.364;2022-07-17T17:00:51;31.30;23.20
66140;DHT22;52945;51.908;8.364;2022-07-17T17:03:52;31.20;22.90
66140;DHT22;52945;51.908;8.364;2022-07-17T17:06:53;31.10;23.50
66140;DHT22;52945;51.908;8.364;2022-07-17T17:09:54;31.00;23.50
66140;DHT22;52945;51.908;8.364;2022-07-17T17:12:55;30.90;23.60
66140;DHT22;52945;51.908;8.364;2022-07-17T17:15:55;30.80;23.70
66140;DHT22;52945;51.908;8.364;2022-07-17T17:18:56;30.70;23.50
66140;DHT22;52945;51.908;8.364;2022-07-17T17:21:56;30.60;23.20
66140;DHT22;52945;51.908;8.364;2022-07-17T17:24:57;30.50;23.10
66140;DHT22;52945;51.908;8.364;2022-07-17T17:27:58;30.40;23.50
66140;DHT22;52945;51.908;8.364;2022-07-17T17:30:58;30.30;23.30
66140;DHT22;52945;51.908;8.364;2022-07-17T17:33:59;30.20;23.70
66140;DHT22;52945;51.908;8.364;2022-07-17T17:37:00;30.10;23.30
66140;DHT22;52945;51.908;8.364;2022-07-17T17:40:00;29.90;23.30
66140;DHT22;52945;51.908;8.364;2022-07-17T17:43:02;29.90;23.10
66140;DHT22;52945;51.908;8.364;2022-07-17T17:46:03;29.80;23.50
66140;DHT22;52945;51.908;8.364;2022-07-17T17:49:04;29.70;23.40
66140;DHT22;52945;51.908;8.364;2022-07-17T17:52:04;29.50;23.50
66140;DHT22;52945;51.908;8.364;2022-07-17T17:55:05;29.40;24.10
66140;DHT22;52945;51.908;8.364;2022-07-17T17:58:07;29.40;25.50
66140;DHT22;52945;51.908;8.364;2022-07-17T18:01:08;29.30;26.50
66140;DHT22;52945;51.908;8.364;2022-07-17T18:04:09;29.20;26.00
66140;DHT22;52945;51.908;8.364;2022-07-17T18:07:10;29.10;25.80
66140;DHT22;52945;51.908;8.364;2022-07-17T18:10:11;29.00;26.10
66140;DHT22;52945;51.908;8.364;2022-07-17T18:13:12;28.90;25.70
66140;DHT22;52945;51.908;8.364;2022-07-17T18:16:13;28.80;25.90
66140;DHT22;52945;51.908;8.364;2022-07-17T18:19:13;28.80;26.00
66140;DHT22;52945;51.908;8.364;2022-07-17T18:22:15;28.70;25.90
66140;DHT22;52945;51.908;8.364;2022-07-17T18:25:16;28.70;25.70
66140;DHT22;52945;51.908;8.364;2022-07-17T18:28:17;28.60;25.90
66140;DHT22;52945;51.908;8.364;2022-07-17T18:31:18;28.60;26.10
66140;DHT22;52945;51.908;8.364;2022-07-17T18:34:18;28.50;25.50
66140;DHT22;52945;51.908;8.364;2022-07-17T18:37:20;28.40;26.10
66140;DHT22;52945;51.908;8.364;2022-07-17T18:40:22;28.30;26.40
66140;DHT22;52945;51.908;8.364;2022-07-17T18:43:23;28.30;26.60
66140;DHT22;52945;51.908;8.364;2022-07-17T18:46:24;28.30;26.80
66140;DHT22;52945;51.908;8.364;2022-07-17T18:49:25;28.20;27.20
66140;DHT22;52945;51.908;8.364;2022-07-17T18:52:26;28.20;27.40
66140;DHT22;52945;51.908;8.364;2022-07-17T18:55:29;28.10;27.40
66140;DHT22;52945;51.908;8.364;2022-07-17T18:58:29;28.00;27.70
66140;DHT22;52945;51.908;8.364;2022-07-17T19:01:30;28.00;28.20
66140;DHT22;52945;51.908;8.364;2022-07-17T19:04:30;28.00;28.10
66140;DHT22;52945;51.908;8.364;2022-07-17T19:07:31;27.80;28.60
66140;DHT22;52945;51.908;8.364;2022-07-17T19:10:32;27.70;28.60